sensor_id;sensor_type;location;lat;lon;timestamp;P1;durP1;ratioP1;P2;durP2;ratioP2
74152;SDS011;62505;46.070;14.492;2023-12-29T00:00:11;9.07;;;5.25;;
74152;SDS011;62505;46.070;14.492;2023-12-29T00:02:40;13.75;;;5.45;;
74152;SDS011;62505;46.070;14.492;2023-12-29T00:05:07;8.70;;;5.00;;
74152;SDS011;62505;46.070;14.492;2023-12-29T00:07:34;9.77;;;5.00;;
74152;SDS011;62505;46.070;14.492;2023-12-29T00:10:01;8.23;;;4.63;;
74152;SDS011;62505;46.070;14.492;2023-12-29T00:12:28;11.25;;;5.20;;
74152;SDS011;62505;46.070;14.492;2023-12-29T00:14:55;9.63;;;5.38;;
74152;SDS011;62505;46.070;14.492;2023-12-29T00:17:22;9.35;;;5.07;;
74152;SDS011;62505;46.070;14.492;2023-12-29T00:19:51;7.68;;;4.90;;
74152;SDS011;62505;46.070;14.492;2023-12-29T00:22:18;9.80;;;5.22;;
74152;SDS011;62505;46.070;14.492;2023-12-29T00:24:46;8.82;;;5.20;;
74152;SDS011;62505;46.070;14.492;2023-12-29T00:27:13;9.90;;;5.10;;
74152;SDS011;62505;46.070;14.492;2023-12-29T00:29:40;9.20;;;4.60;;
74152;SDS011;62505;46.070;14.492;2023-12-29T00:32:07;13.00;;;5.45;;
74152;SDS011;62505;46.070;14.492;2023-12-29T00:34:34;8.02;;;4.82;;
74152;SDS011;62505;46.070;14.492;2023-12-29T00:37:03;8.73;;;4.85;;
74152;SDS011;62505;46.070;14.492;2023-12-29T00:39:31;8.20;;;4.55;;
74152;SDS011;62505;46.070;14.492;2023-12-29T00:42:03;11.35;;;4.82;;
74152;SDS011;62505;46.070;14.492;2023-12-29T00:44:31;11.45;;;5.25;;
74152;SDS011;62505;46.070;14.492;2023-12-29T00:46:58;9.43;;;5.50;;
74152;SDS011;62505;46.070;14.492;2023-12-29T00:49:26;10.40;;;5.03;;
74152;SDS011;62505;46.070;14.492;2023-12-29T00:51:53;10.57;;;5.25;;
74152;SDS011;62505;46.070;14.492;2023-12-29T00:54:21;10.07;;;4.85;;
74152;SDS011;62505;46.070;14.492;2023-12-29T00:56:48;13.70;;;5.40;;
74152;SDS011;62505;46.070;14.492;2023-12-29T00:59:15;9.18;;;5.53;;
74152;SDS011;62505;46.070;14.492;2023-12-29T01:01:44;10.15;;;4.70;;
74152;SDS011;62505;46.070;14.492;2023-12-29T01:04:11;8.77;;;5.43;;
74152;SDS011;62505;46.070;14.492;2023-12-29T01:06:38;8.95;;;5.03;;
74152;SDS011;62505;46.070;14.492;2023-12-29T01:09:06;10.75;;;5.15;;
74152;SDS011;62505;46.070;14.492;2023-12-29T01:11:35;13.45;;;5.68;;
74152;SDS011;62505;46.070;14.492;2023-12-29T01:14:02;10.80;;;5.35;;
74152;SDS011;62505;46.070;14.492;2023-12-29T01:16:30;9.43;;;4.93;;
74152;SDS011;62505;46.070;14.492;2023-12-29T01:18:57;9.55;;;5.28;;
74152;SDS011;62505;46.070;14.492;2023-12-29T01:21:24;9.88;;;5.05;;
74152;SDS011;62505;46.070;14.492;2023-12-29T01:23:51;11.30;;;5.53;;
74152;SDS011;62505;46.070;14.492;2023-12-29T01:26:18;12.93;;;5.85;;
74152;SDS011;62505;46.070;14.492;2023-12-29T01:28:47;9.15;;;5.63;;
74152;SDS011;62505;46.070;14.492;2023-12-29T01:31:14;9.30;;;5.60;;
74152;SDS011;62505;46.070;14.492;2023-12-29T01:33:41;9.10;;;4.88;;
74152;SDS011;62505;46.070;14.492;2023-12-29T01:36:08;11.05;;;5.15;;
74152;SDS011;62505;46.070;14.492;2023-12-29T01:38:35;8.20;;;4.60;;
74152;SDS011;62505;46.070;14.492;2023-12-29T01:41:02;9.68;;;5.50;;
74152;SDS011;62505;46.070;14.492;2023-12-29T01:43:29;14.25;;;6.07;;
74152;SDS011;62505;46.070;14.492;2023-12-29T01:45:58;15.30;;;5.43;;
74152;SDS011;62505;46.070;14.492;2023-12-29T01:48:25;7.45;;;5.10;;
74152;SDS011;62505;46.070;14.492;2023-12-29T01:50:53;13.30;;;5.57;;
74152;SDS011;62505;46.070;14.492;2023-12-29T01:53:22;11.77;;;5.43;;
74152;SDS011;62505;46.070;14.492;2023-12-29T01:55:49;9.70;;;5.20;;
74152;SDS011;62505;46.070;14.492;2023-12-29T01:58:16;9.95;;;5.20;;
74152;SDS011;62505;46.070;14.492;2023-12-29T02:00:43;10.55;;;5.00;;
74152;SDS011;62505;46.070;14.492;2023-12-29T02:03:12;9.50;;;5.30;;
74152;SDS011;62505;46.070;14.492;2023-12-29T02:05:39;9.32;;;4.93;;
74152;SDS011;62505;46.070;14.492;2023-12-29T02:08:07;10.57;;;5.00;;
74152;SDS011;62505;46.070;14.492;2023-12-29T02:10:35;9.45;;;5.00;;
74152;SDS011;62505;46.070;14.492;2023-12-29T02:13:03;10.05;;;5.07;;
74152;SDS011;62505;46.070;14.492;2023-12-29T02:15:30;8.48;;;5.13;;
74152;SDS011;62505;46.070;14.492;2023-12-29T02:17:59;9.40;;;5.22;;
74152;SDS011;62505;46.070;14.492;2023-12-29T02:20:30;11.75;;;5.07;;
74152;SDS011;62505;46.070;14.492;2023-12-29T02:22:58;9.18;;;5.55;;
74152;SDS011;62505;46.070;14.492;2023-12-29T02:25:26;9.77;;;5.40;;
74152;SDS011;62505;46.070;14.492;2023-12-29T02:27:56;11.75;;;4.78;;
74152;SDS011;62505;46.070;14.492;2023-12-29T02:30:27;11.77;;;5.32;;
74152;SDS011;62505;46.070;14.492;2023-12-29T02:33:01;10.90;;;5.30;;
74152;SDS011;62505;46.070;14.492;2023-12-29T02:35:32;10.90;;;5.32;;
74152;SDS011;62505;46.070;14.492;2023-12-29T02:38:01;11.40;;;5.43;;
74152;SDS011;62505;46.070;14.492;2023-12-29T02:40:30;11.02;;;5.35;;
74152;SDS011;62505;46.070;14.492;2023-12-29T02:42:58;11.88;;;5.25;;
74152;SDS011;62505;46.070;14.492;2023-12-29T02:45:25;9.77;;;5.00;;
74152;SDS011;62505;46.070;14.492;2023-12-29T02:47:52;10.88;;;5.47;;
74152;SDS011;62505;46.070;14.492;2023-12-29T02:50:19;10.43;;;5.07;;
74152;SDS011;62505;46.070;14.492;2023-12-29T02:52:46;13.13;;;4.88;;
74152;SDS011;62505;46.070;14.492;2023-12-29T02:55:13;10.32;;;5.47;;
74152;SDS011;62505;46.070;14.492;2023-12-29T02:57:41;10.60;;;5.63;;
74152;SDS011;62505;46.070;14.492;2023-12-29T03:00:09;10.93;;;5.22;;
74152;SDS011;62505;46.070;14.492;2023-12-29T03:02:36;10.73;;;5.30;;
74152;SDS011;62505;46.070;14.492;2023-12-29T03:05:03;10.80;;;5.35;;
74152;SDS011;62505;46.070;14.492;2023-12-29T03:07:31;12.02;;;5.55;;
74152;SDS011;62505;46.070;14.492;2023-12-29T03:09:58;11.18;;;5.55;;
74152;SDS011;62505;46.070;14.492;2023-12-29T03:12:25;9.50;;;4.45;;
74152;SDS011;62505;46.070;14.492;2023-12-29T03:14:53;8.98;;;5.63;;
74152;SDS011;62505;46.070;14.492;2023-12-29T03:17:20;7.95;;;5.05;;
74152;SDS011;62505;46.070;14.492;2023-12-29T03:19:47;11.57;;;5.10;;
74152;SDS011;62505;46.070;14.492;2023-12-29T03:22:14;9.43;;;4.97;;
74152;SDS011;62505;46.070;14.492;2023-12-29T03:24:41;10.98;;;5.45;;
74152;SDS011;62505;46.070;14.492;2023-12-29T03:27:08;11.40;;;5.53;;
74152;SDS011;62505;46.070;14.492;2023-12-29T03:29:35;8.70;;;4.90;;
74152;SDS011;62505;46.070;14.492;2023-12-29T03:32:03;11.15;;;4.70;;
74152;SDS011;62505;46.070;14.492;2023-12-29T03:34:32;9.32;;;4.68;;
74152;SDS011;62505;46.070;14.492;2023-12-29T03:36:59;9.50;;;5.45;;
74152;SDS011;62505;46.070;14.492;2023-12-29T03:39:26;12.80;;;5.35;;
74152;SDS011;62505;46.070;14.492;2023-12-29T03:41:53;9.15;;;5.15;;
74152;SDS011;62505;46.070;14.492;2023-12-29T03:44:20;9.77;;;4.47;;
74152;SDS011;62505;46.070;14.492;2023-12-29T03:46:47;13.20;;;4.80;;
74152;SDS011;62505;46.070;14.492;2023-12-29T03:49:16;12.68;;;5.80;;
74152;SDS011;62505;46.070;14.492;2023-12-29T03:51:43;11.40;;;5.43;;
74152;SDS011;62505;46.070;14.492;2023-12-29T03:54:09;12.70;;;5.32;;
74152;SDS011;62505;46.070;14.492;2023-12-29T03:56:37;10.73;;;5.07;;
74152;SDS011;62505;46.070;14.492;2023-12-29T03:59:03;10.45;;;5.53;;
74152;SDS011;62505;46.070;14.492;2023-12-29T04:01:33;10.95;;;5.45;;
74152;SDS011;62505;46.070;14.492;2023-12-29T04:03:59;9.32;;;5.50;;
74152;SDS011;62505;46.070;14.492;2023-12-29T04:06:27;9.70;;;4.70;;
74152;SDS011;62505;46.070;14.492;2023-12-29T04:08:55;10.27;;;5.07;;
74152;SDS011;62505;46.070;14.492;2023-12-29T04:11:21;9.20;;;5.20;;
74152;SDS011;62505;46.070;14.492;2023-12-29T04:13:48;8.93;;;5.05;;
74152;SDS011;62505;46.070;14.492;2023-12-29T04:16:15;10.05;;;5.63;;
74152;SDS011;62505;46.070;14.492;2023-12-29T04:18:43;10.15;;;5.47;;
74152;SDS011;62505;46.070;14.492;2023-12-29T04:21:13;12.48;;;5.05;;
74152;SDS011;62505;46.070;14.492;2023-12-29T04:23:41;8.20;;;4.90;;
74152;SDS011;62505;46.070;14.492;2023-12-29T04:26:08;10.32;;;5.57;;
74152;SDS011;62505;46.070;14.492;2023-12-29T04:28:35;8.23;;;4.85;;
74152;SDS011;62505;46.070;14.492;2023-12-29T04:31:02;9.60;;;4.72;;
74152;SDS011;62505;46.070;14.492;2023-12-29T04:33:30;9.77;;;5.07;;
74152;SDS011;62505;46.070;14.492;2023-12-29T04:35:57;7.07;;;4.70;;
74152;SDS011;62505;46.070;14.492;2023-12-29T04:38:24;12.07;;;6.05;;
74152;SDS011;62505;46.070;14.492;2023-12-29T04:40:52;9.52;;;5.30;;
74152;SDS011;62505;46.070;14.492;2023-12-29T04:43:19;9.60;;;5.22;;
74152;SDS011;62505;46.070;14.492;2023-12-29T04:45:46;9.00;;;4.80;;
74152;SDS011;62505;46.070;14.492;2023-12-29T04:48:13;11.45;;;5.22;;
74152;SDS011;62505;46.070;14.492;2023-12-29T04:50:40;7.90;;;5.18;;
74152;SDS011;62505;46.070;14.492;2023-12-29T04:53:08;9.00;;;4.68;;
74152;SDS011;62505;46.070;14.492;2023-12-29T04:55:35;9.77;;;5.00;;
74152;SDS011;62505;46.070;14.492;2023-12-29T04:58:03;8.18;;;4.97;;
74152;SDS011;62505;46.070;14.492;2023-12-29T05:00:31;11.48;;;4.90;;
74152;SDS011;62505;46.070;14.492;2023-12-29T05:02:58;7.88;;;4.32;;
74152;SDS011;62505;46.070;14.492;2023-12-29T05:05:25;11.45;;;5.90;;
74152;SDS011;62505;46.070;14.492;2023-12-29T05:07:52;8.63;;;4.40;;
74152;SDS011;62505;46.070;14.492;2023-12-29T05:10:19;9.45;;;5.00;;
74152;SDS011;62505;46.070;14.492;2023-12-29T05:12:46;11.23;;;5.95;;
74152;SDS011;62505;46.070;14.492;2023-12-29T05:15:15;9.20;;;4.90;;
74152;SDS011;62505;46.070;14.492;2023-12-29T05:17:42;9.88;;;5.18;;
74152;SDS011;62505;46.070;14.492;2023-12-29T05:20:09;11.10;;;5.03;;
74152;SDS011;62505;46.070;14.492;2023-12-29T05:22:37;11.05;;;4.60;;
74152;SDS011;62505;46.070;14.492;2023-12-29T05:25:04;11.95;;;6.18;;
74152;SDS011;62505;46.070;14.492;2023-12-29T05:27:31;13.35;;;5.00;;
74152;SDS011;62505;46.070;14.492;2023-12-29T05:29:58;16.13;;;4.93;;
74152;SDS011;62505;46.070;14.492;2023-12-29T05:32:26;8.95;;;4.80;;
74152;SDS011;62505;46.070;14.492;2023-12-29T05:34:53;13.55;;;5.30;;
74152;SDS011;62505;46.070;14.492;2023-12-29T05:37:20;14.30;;;5.80;;
74152;SDS011;62505;46.070;14.492;2023-12-29T05:39:47;14.38;;;5.47;;
74152;SDS011;62505;46.070;14.492;2023-12-29T05:42:14;13.20;;;5.40;;
74152;SDS011;62505;46.070;14.492;2023-12-29T05:44:44;11.60;;;5.15;;
74152;SDS011;62505;46.070;14.492;2023-12-29T05:47:11;8.75;;;4.90;;
74152;SDS011;62505;46.070;14.492;2023-12-29T05:49:40;11.10;;;4.78;;
74152;SDS011;62505;46.070;14.492;2023-12-29T05:52:07;12.40;;;5.20;;
74152;SDS011;62505;46.070;14.492;2023-12-29T05:54:34;10.77;;;5.10;;
74152;SDS011;62505;46.070;14.492;2023-12-29T05:57:02;10.60;;;5.50;;
74152;SDS011;62505;46.070;14.492;2023-12-29T05:59:32;11.07;;;5.20;;
74152;SDS011;62505;46.070;14.492;2023-12-29T06:01:59;10.75;;;5.00;;
74152;SDS011;62505;46.070;14.492;2023-12-29T06:04:26;8.38;;;4.68;;
74152;SDS011;62505;46.070;14.492;2023-12-29T06:06:55;13.10;;;4.65;;
74152;SDS011;62505;46.070;14.492;2023-12-29T06:09:22;12.30;;;5.15;;
74152;SDS011;62505;46.070;14.492;2023-12-29T06:11:49;13.55;;;4.85;;
74152;SDS011;62505;46.070;14.492;2023-12-29T06:14:17;16.52;;;5.97;;
74152;SDS011;62505;46.070;14.492;2023-12-29T06:16:44;14.73;;;5.22;;
74152;SDS011;62505;46.070;14.492;2023-12-29T06:19:11;11.70;;;4.72;;
74152;SDS011;62505;46.070;14.492;2023-12-29T06:21:40;8.73;;;4.60;;
74152;SDS011;62505;46.070;14.492;2023-12-29T06:24:09;10.52;;;5.13;;
74152;SDS011;62505;46.070;14.492;2023-12-29T06:26:36;10.38;;;5.35;;
74152;SDS011;62505;46.070;14.492;2023-12-29T06:29:06;10.30;;;4.68;;
74152;SDS011;62505;46.070;14.492;2023-12-29T06:31:34;9.60;;;4.60;;
74152;SDS011;62505;46.070;14.492;2023-12-29T06:34:01;12.88;;;5.10;;
74152;SDS011;62505;46.070;14.492;2023-12-29T06:36:28;8.73;;;4.20;;
74152;SDS011;62505;46.070;14.492;2023-12-29T06:38:55;11.02;;;5.03;;
74152;SDS011;62505;46.070;14.492;2023-12-29T06:41:24;11.20;;;5.00;;
74152;SDS011;62505;46.070;14.492;2023-12-29T06:43:51;13.32;;;4.55;;
74152;SDS011;62505;46.070;14.492;2023-12-29T06:46:18;12.18;;;4.75;;
74152;SDS011;62505;46.070;14.492;2023-12-29T06:48:45;12.40;;;4.75;;
74152;SDS011;62505;46.070;14.492;2023-12-29T06:51:15;12.98;;;5.45;;
74152;SDS011;62505;46.070;14.492;2023-12-29T06:53:43;10.57;;;5.25;;
74152;SDS011;62505;46.070;14.492;2023-12-29T06:56:12;11.07;;;4.85;;
74152;SDS011;62505;46.070;14.492;2023-12-29T06:58:41;8.27;;;4.60;;
74152;SDS011;62505;46.070;14.492;2023-12-29T07:01:08;10.32;;;4.68;;
74152;SDS011;62505;46.070;14.492;2023-12-29T07:03:36;10.88;;;5.00;;
74152;SDS011;62505;46.070;14.492;2023-12-29T07:06:03;9.80;;;5.00;;
74152;SDS011;62505;46.070;14.492;2023-12-29T07:08:31;14.02;;;5.03;;
74152;SDS011;62505;46.070;14.492;2023-12-29T07:10:58;10.77;;;4.88;;
74152;SDS011;62505;46.070;14.492;2023-12-29T07:13:25;12.27;;;4.80;;
74152;SDS011;62505;46.070;14.492;2023-12-29T07:15:53;11.85;;;5.18;;
74152;SDS011;62505;46.070;14.492;2023-12-29T07:18:21;13.13;;;5.30;;
74152;SDS011;62505;46.070;14.492;2023-12-29T07:20:48;15.10;;;5.38;;
74152;SDS011;62505;46.070;14.492;2023-12-29T07:23:15;12.25;;;4.82;;
74152;SDS011;62505;46.070;14.492;2023-12-29T07:25:42;12.48;;;5.07;;
74152;SDS011;62505;46.070;14.492;2023-12-29T07:28:09;9.63;;;4.97;;
74152;SDS011;62505;46.070;14.492;2023-12-29T07:30:36;12.63;;;4.95;;
74152;SDS011;62505;46.070;14.492;2023-12-29T07:33:04;12.77;;;5.22;;
74152;SDS011;62505;46.070;14.492;2023-12-29T07:35:31;11.15;;;4.63;;
74152;SDS011;62505;46.070;14.492;2023-12-29T07:37:59;10.98;;;5.18;;
74152;SDS011;62505;46.070;14.492;2023-12-29T07:40:26;8.57;;;4.63;;
74152;SDS011;62505;46.070;14.492;2023-12-29T07:42:53;8.80;;;4.95;;
74152;SDS011;62505;46.070;14.492;2023-12-29T07:45:20;14.82;;;4.75;;
74152;SDS011;62505;46.070;14.492;2023-12-29T07:47:47;11.15;;;5.15;;
74152;SDS011;62505;46.070;14.492;2023-12-29T07:50:15;9.98;;;4.90;;
74152;SDS011;62505;46.070;14.492;2023-12-29T07:52:42;9.07;;;4.72;;
74152;SDS011;62505;46.070;14.492;2023-12-29T07:55:10;11.55;;;5.13;;
74152;SDS011;62505;46.070;14.492;2023-12-29T07:57:37;11.10;;;5.50;;
74152;SDS011;62505;46.070;14.492;2023-12-29T08:00:04;13.38;;;5.18;;
74152;SDS011;62505;46.070;14.492;2023-12-29T08:02:32;7.00;;;4.70;;
74152;SDS011;62505;46.070;14.492;2023-12-29T08:04:59;10.70;;;4.47;;
74152;SDS011;62505;46.070;14.492;2023-12-29T08:07:28;9.63;;;4.90;;
74152;SDS011;62505;46.070;14.492;2023-12-29T08:09:55;7.88;;;5.00;;
74152;SDS011;62505;46.070;14.492;2023-12-29T08:12:22;11.20;;;5.07;;
74152;SDS011;62505;46.070;14.492;2023-12-29T08:14:49;13.13;;;5.35;;
74152;SDS011;62505;46.070;14.492;2023-12-29T08:17:16;9.40;;;4.60;;
74152;SDS011;62505;46.070;14.492;2023-12-29T08:19:44;10.55;;;4.82;;
74152;SDS011;62505;46.070;14.492;2023-12-29T08:22:11;12.90;;;4.80;;
74152;SDS011;62505;46.070;14.492;2023-12-29T08:24:41;10.95;;;5.10;;
74152;SDS011;62505;46.070;14.492;2023-12-29T08:27:08;9.18;;;5.05;;
74152;SDS011;62505;46.070;14.492;2023-12-29T08:29:36;9.75;;;4.07;;
74152;SDS011;62505;46.070;14.492;2023-12-29T08:32:03;7.38;;;4.00;;
74152;SDS011;62505;46.070;14.492;2023-12-29T08:34:30;8.98;;;4.82;;
74152;SDS011;62505;46.070;14.492;2023-12-29T08:36:59;7.78;;;4.55;;
74152;SDS011;62505;46.070;14.492;2023-12-29T08:39:26;9.88;;;5.15;;
74152;SDS011;62505;46.070;14.492;2023-12-29T08:41:54;10.30;;;4.82;;
74152;SDS011;62505;46.070;14.492;2023-12-29T08:44:21;8.32;;;4.22;;
74152;SDS011;62505;46.070;14.492;2023-12-29T08:46:49;10.27;;;4.65;;
74152;SDS011;62505;46.070;14.492;2023-12-29T08:49:16;6.47;;;4.30;;
74152;SDS011;62505;46.070;14.492;2023-12-29T08:51:43;9.85;;;4.53;;
74152;SDS011;62505;46.070;14.492;2023-12-29T08:54:10;11.93;;;4.40;;
74152;SDS011;62505;46.070;14.492;2023-12-29T08:56:37;9.63;;;4.60;;
74152;SDS011;62505;46.070;14.492;2023-12-29T08:59:06;8.88;;;4.40;;
74152;SDS011;62505;46.070;14.492;2023-12-29T09:01:33;9.70;;;4.05;;
74152;SDS011;62505;46.070;14.492;2023-12-29T09:04:00;7.72;;;4.25;;
74152;SDS011;62505;46.070;14.492;2023-12-29T09:06:26;8.13;;;4.20;;
74152;SDS011;62505;46.070;14.492;2023-12-29T09:08:53;8.05;;;4.03;;
74152;SDS011;62505;46.070;14.492;2023-12-29T09:11:20;6.47;;;4.22;;
74152;SDS011;62505;46.070;14.492;2023-12-29T09:13:47;8.88;;;4.15;;
74152;SDS011;62505;46.070;14.492;2023-12-29T09:16:16;6.32;;;4.03;;
74152;SDS011;62505;46.070;14.492;2023-12-29T09:18:43;8.20;;;3.80;;
74152;SDS011;62505;46.070;14.492;2023-12-29T09:21:09;8.93;;;4.13;;
74152;SDS011;62505;46.070;14.492;2023-12-29T09:23:37;10.40;;;4.00;;
74152;SDS011;62505;46.070;14.492;2023-12-29T09:26:04;7.35;;;4.35;;
74152;SDS011;62505;46.070;14.492;2023-12-29T09:28:32;7.55;;;4.55;;
74152;SDS011;62505;46.070;14.492;2023-12-29T09:30:59;8.07;;;4.43;;
74152;SDS011;62505;46.070;14.492;2023-12-29T09:33:28;7.55;;;4.30;;
74152;SDS011;62505;46.070;14.492;2023-12-29T09:35:55;9.85;;;4.68;;
74152;SDS011;62505;46.070;14.492;2023-12-29T09:38:22;7.97;;;4.10;;
74152;SDS011;62505;46.070;14.492;2023-12-29T09:40:49;9.75;;;4.85;;
74152;SDS011;62505;46.070;14.492;2023-12-29T09:43:19;6.72;;;4.03;;
74152;SDS011;62505;46.070;14.492;2023-12-29T09:45:46;6.63;;;3.65;;
74152;SDS011;62505;46.070;14.492;2023-12-29T09:48:16;6.22;;;4.05;;
74152;SDS011;62505;46.070;14.492;2023-12-29T09:50:47;6.90;;;3.90;;
74152;SDS011;62505;46.070;14.492;2023-12-29T09:53:17;6.28;;;4.00;;
74152;SDS011;62505;46.070;14.492;2023-12-29T09:55:46;5.55;;;3.70;;
74152;SDS011;62505;46.070;14.492;2023-12-29T09:58:15;6.82;;;3.53;;
74152;SDS011;62505;46.070;14.492;2023-12-29T10:00:43;7.95;;;4.03;;
74152;SDS011;62505;46.070;14.492;2023-12-29T10:03:12;5.75;;;3.70;;
74152;SDS011;62505;46.070;14.492;2023-12-29T10:05:39;5.35;;;3.83;;
74152;SDS011;62505;46.070;14.492;2023-12-29T10:08:08;6.53;;;3.55;;
74152;SDS011;62505;46.070;14.492;2023-12-29T10:10:36;6.65;;;4.28;;
74152;SDS011;62505;46.070;14.492;2023-12-29T10:13:06;6.75;;;3.65;;
74152;SDS011;62505;46.070;14.492;2023-12-29T10:15:37;5.55;;;3.83;;
74152;SDS011;62505;46.070;14.492;2023-12-29T10:18:11;6.63;;;3.97;;
74152;SDS011;62505;46.070;14.492;2023-12-29T10:20:45;7.00;;;3.78;;
74152;SDS011;62505;46.070;14.492;2023-12-29T10:23:18;5.50;;;3.83;;
74152;SDS011;62505;46.070;14.492;2023-12-29T10:25:49;7.30;;;3.85;;
74152;SDS011;62505;46.070;14.492;2023-12-29T10:28:16;6.00;;;3.50;;
74152;SDS011;62505;46.070;14.492;2023-12-29T10:30:43;6.45;;;4.15;;
74152;SDS011;62505;46.070;14.492;2023-12-29T10:33:10;8.63;;;3.85;;
74152;SDS011;62505;46.070;14.492;2023-12-29T10:35:56;5.47;;;3.70;;
74152;SDS011;62505;46.070;14.492;2023-12-29T10:38:28;7.05;;;3.47;;
74152;SDS011;62505;46.070;14.492;2023-12-29T10:41:00;6.15;;;3.85;;
74152;SDS011;62505;46.070;14.492;2023-12-29T10:43:37;6.10;;;4.13;;
74152;SDS011;62505;46.070;14.492;2023-12-29T10:46:05;5.53;;;3.83;;
74152;SDS011;62505;46.070;14.492;2023-12-29T10:48:33;6.72;;;3.67;;
74152;SDS011;62505;46.070;14.492;2023-12-29T10:51:00;8.00;;;3.85;;
74152;SDS011;62505;46.070;14.492;2023-12-29T10:53:30;6.28;;;3.90;;
74152;SDS011;62505;46.070;14.492;2023-12-29T10:55:58;5.78;;;4.03;;
74152;SDS011;62505;46.070;14.492;2023-12-29T10:58:26;8.07;;;4.07;;
74152;SDS011;62505;46.070;14.492;2023-12-29T11:00:54;6.05;;;4.22;;
74152;SDS011;62505;46.070;14.492;2023-12-29T11:03:21;5.97;;;3.80;;
74152;SDS011;62505;46.070;14.492;2023-12-29T11:05:49;6.78;;;3.78;;
74152;SDS011;62505;46.070;14.492;2023-12-29T11:08:26;5.13;;;3.70;;
74152;SDS011;62505;46.070;14.492;2023-12-29T11:10:55;5.40;;;3.47;;
74152;SDS011;62505;46.070;14.492;2023-12-29T11:13:21;4.88;;;3.60;;
74152;SDS011;62505;46.070;14.492;2023-12-29T11:15:48;5.22;;;3.90;;
74152;SDS011;62505;46.070;14.492;2023-12-29T11:18:17;5.55;;;3.80;;
74152;SDS011;62505;46.070;14.492;2023-12-29T11:20:45;6.00;;;3.83;;
74152;SDS011;62505;46.070;14.492;2023-12-29T11:23:15;5.30;;;3.70;;
74152;SDS011;62505;46.070;14.492;2023-12-29T11:25:43;5.97;;;3.97;;
74152;SDS011;62505;46.070;14.492;2023-12-29T11:28:18;6.03;;;3.53;;
74152;SDS011;62505;46.070;14.492;2023-12-29T11:30:46;5.95;;;4.13;;
74152;SDS011;62505;46.070;14.492;2023-12-29T11:33:17;6.63;;;4.10;;
74152;SDS011;62505;46.070;14.492;2023-12-29T11:35:50;7.57;;;3.75;;
74152;SDS011;62505;46.070;14.492;2023-12-29T11:38:24;5.35;;;4.00;;
74152;SDS011;62505;46.070;14.492;2023-12-29T11:41:02;6.75;;;3.85;;
74152;SDS011;62505;46.070;14.492;2023-12-29T11:43:37;8.35;;;4.00;;
74152;SDS011;62505;46.070;14.492;2023-12-29T11:46:04;5.55;;;3.47;;
74152;SDS011;62505;46.070;14.492;2023-12-29T11:51:35;7.75;;;4.22;;
74152;SDS011;62505;46.070;14.492;2023-12-29T11:54:21;6.70;;;4.07;;
74152;SDS011;62505;46.070;14.492;2023-12-29T11:56:48;5.53;;;3.50;;
74152;SDS011;62505;46.070;14.492;2023-12-29T11:59:18;4.63;;;3.35;;
74152;SDS011;62505;46.070;14.492;2023-12-29T12:01:48;4.95;;;3.63;;
74152;SDS011;62505;46.070;14.492;2023-12-29T12:04:38;6.68;;;4.03;;
74152;SDS011;62505;46.070;14.492;2023-12-29T12:07:07;6.25;;;3.83;;
74152;SDS011;62505;46.070;14.492;2023-12-29T12:09:35;5.60;;;3.78;;
74152;SDS011;62505;46.070;14.492;2023-12-29T12:12:01;5.95;;;3.80;;
74152;SDS011;62505;46.070;14.492;2023-12-29T12:14:44;5.75;;;3.92;;
74152;SDS011;62505;46.070;14.492;2023-12-29T12:17:12;5.50;;;3.80;;
74152;SDS011;62505;46.070;14.492;2023-12-29T12:19:55;6.38;;;3.67;;
74152;SDS011;62505;46.070;14.492;2023-12-29T12:22:24;5.57;;;3.58;;
74152;SDS011;62505;46.070;14.492;2023-12-29T12:24:55;6.57;;;3.60;;
74152;SDS011;62505;46.070;14.492;2023-12-29T12:27:23;4.97;;;3.38;;
74152;SDS011;62505;46.070;14.492;2023-12-29T12:29:53;10.00;;;3.53;;
74152;SDS011;62505;46.070;14.492;2023-12-29T12:32:24;4.80;;;3.50;;
74152;SDS011;62505;46.070;14.492;2023-12-29T12:34:52;5.65;;;3.28;;
74152;SDS011;62505;46.070;14.492;2023-12-29T12:37:19;5.10;;;3.40;;
74152;SDS011;62505;46.070;14.492;2023-12-29T12:39:47;4.03;;;3.10;;
74152;SDS011;62505;46.070;14.492;2023-12-29T12:42:15;5.30;;;3.60;;
74152;SDS011;62505;46.070;14.492;2023-12-29T12:44:46;6.32;;;3.30;;
74152;SDS011;62505;46.070;14.492;2023-12-29T12:47:17;7.43;;;3.80;;
74152;SDS011;62505;46.070;14.492;2023-12-29T12:49:50;5.60;;;3.67;;
74152;SDS011;62505;46.070;14.492;2023-12-29T12:52:18;6.07;;;3.88;;
74152;SDS011;62505;46.070;14.492;2023-12-29T12:54:45;5.13;;;3.53;;
74152;SDS011;62505;46.070;14.492;2023-12-29T12:57:13;5.70;;;3.58;;
74152;SDS011;62505;46.070;14.492;2023-12-29T12:59:45;4.82;;;3.65;;
74152;SDS011;62505;46.070;14.492;2023-12-29T13:02:12;5.60;;;3.95;;
74152;SDS011;62505;46.070;14.492;2023-12-29T13:04:43;4.22;;;3.22;;
74152;SDS011;62505;46.070;14.492;2023-12-29T13:07:10;4.57;;;3.28;;
74152;SDS011;62505;46.070;14.492;2023-12-29T13:09:41;6.30;;;3.15;;
74152;SDS011;62505;46.070;14.492;2023-12-29T13:12:08;6.57;;;3.38;;
74152;SDS011;62505;46.070;14.492;2023-12-29T13:14:36;5.20;;;3.35;;
74152;SDS011;62505;46.070;14.492;2023-12-29T13:17:07;4.72;;;3.65;;
74152;SDS011;62505;46.070;14.492;2023-12-29T13:19:35;6.18;;;3.40;;
74152;SDS011;62505;46.070;14.492;2023-12-29T13:22:06;5.30;;;3.58;;
74152;SDS011;62505;46.070;14.492;2023-12-29T13:24:34;6.78;;;4.15;;
74152;SDS011;62505;46.070;14.492;2023-12-29T13:27:08;7.10;;;4.43;;
74152;SDS011;62505;46.070;14.492;2023-12-29T13:29:37;5.22;;;3.55;;
74152;SDS011;62505;46.070;14.492;2023-12-29T13:32:07;5.15;;;3.67;;
74152;SDS011;62505;46.070;14.492;2023-12-29T13:34:38;4.72;;;3.45;;
74152;SDS011;62505;46.070;14.492;2023-12-29T13:37:16;5.88;;;3.80;;
74152;SDS011;62505;46.070;14.492;2023-12-29T13:39:51;7.88;;;5.18;;
74152;SDS011;62505;46.070;14.492;2023-12-29T13:42:22;10.40;;;7.10;;
74152;SDS011;62505;46.070;14.492;2023-12-29T13:44:51;8.23;;;6.25;;
74152;SDS011;62505;46.070;14.492;2023-12-29T13:47:20;10.68;;;7.07;;
74152;SDS011;62505;46.070;14.492;2023-12-29T13:49:47;12.52;;;7.63;;
74152;SDS011;62505;46.070;14.492;2023-12-29T13:52:17;11.00;;;7.15;;
74152;SDS011;62505;46.070;14.492;2023-12-29T13:54:45;9.77;;;7.28;;
74152;SDS011;62505;46.070;14.492;2023-12-29T13:57:13;12.13;;;6.82;;
74152;SDS011;62505;46.070;14.492;2023-12-29T13:59:40;9.82;;;6.97;;
74152;SDS011;62505;46.070;14.492;2023-12-29T14:02:20;9.30;;;5.53;;
74152;SDS011;62505;46.070;14.492;2023-12-29T14:05:02;9.32;;;5.70;;
74152;SDS011;62505;46.070;14.492;2023-12-29T14:07:38;8.30;;;5.07;;
74152;SDS011;62505;46.070;14.492;2023-12-29T14:10:13;7.45;;;5.05;;
74152;SDS011;62505;46.070;14.492;2023-12-29T14:12:40;7.43;;;4.55;;
74152;SDS011;62505;46.070;14.492;2023-12-29T14:15:08;13.45;;;7.72;;
74152;SDS011;62505;46.070;14.492;2023-12-29T14:17:35;10.98;;;7.80;;
74152;SDS011;62505;46.070;14.492;2023-12-29T14:20:03;12.85;;;8.07;;
74152;SDS011;62505;46.070;14.492;2023-12-29T14:22:31;12.50;;;7.45;;
74152;SDS011;62505;46.070;14.492;2023-12-29T14:25:04;12.00;;;7.00;;
74152;SDS011;62505;46.070;14.492;2023-12-29T14:27:32;9.25;;;6.40;;
74152;SDS011;62505;46.070;14.492;2023-12-29T14:30:00;8.52;;;5.97;;
74152;SDS011;62505;46.070;14.492;2023-12-29T14:32:27;9.88;;;6.10;;
74152;SDS011;62505;46.070;14.492;2023-12-29T14:34:55;9.43;;;6.00;;
74152;SDS011;62505;46.070;14.492;2023-12-29T14:37:22;12.27;;;6.20;;